Time;durP1;ratioP1;P1;durP2;ratioP2;P2;SDS_P1;SDS_P2;PMS_P1;PMS_P2;Temp;Humidity;BMP_temperature;BMP_pressure;BME280_temperature;BME280_humidity;BME280_pressure;Samples;Min_cycle;Max_cycle;Signal;HPM_P1;HPM_P2
2022/08/13 00:01:05;;;;;;;;;;;;;;;;;;5046659;28;19959;-75
2022/08/13 00:03:32;;;;;;;;;;;;;;;;;;5035885;28;20486;-76
2022/08/13 00:06:01;;;;;;;;;;;;;;;;;;5038925;28;19940;-82
2022/08/13 00:08:27;;;;;;;;;;;;;;;;;;5033973;28;20003;-79
2022/08/13 00:10:54;;;;;;;;;;;;;;;;;;5042114;28;19963;-78
2022/08/13 00:13:23;;;;;;;;;;;;;;;;;;5045317;28;20005;-78
2022/08/13 00:15:49;;;;;;;;;;;;;;;;;;5042438;28;20419;-79
2022/08/13 00:18:16;;;;;;;;;;;;;;;;;;5043987;28;19948;-78
2022/08/13 00:20:42;;;;;;;;;;;;;;;;;;5038784;28;20014;-78
2022/08/13 00:23:08;;;;;;;;;;;;;;;;;;5044401;28;19960;-76
2022/08/13 00:25:34;;;;;;;;;;;;;;;;;;5040076;28;19970;-77
2022/08/13 00:28:04;;;;;;;;;;;;;;;;;;5046573;28;19920;-77
2022/08/13 00:30:33;;;;;;;;;;;;;;;;;;5025887;28;20457;-77
2022/08/13 00:32:59;;;;;;;;;;;;;;;;;;5039920;28;20404;-76
2022/08/13 00:35:27;;;;;;;;;;;;;;;;;;5042809;28;19945;-77
2022/08/13 00:37:53;;;;;;;;;;;;;;;;;;5044164;28;20934;-76
2022/08/13 00:40:19;;;;;;;;;;;;;;;;;;5040186;28;19952;-77
2022/08/13 00:42:46;;;;;;;;;;;;;;;;;;5039111;28;19949;-78
2022/08/13 00:45:12;;;;;;;;;;;;;;;;;;5010851;28;19952;-77
2022/08/13 00:50:23;;;;;;;;;;;;;;;;;;5032222;28;19945;-76
2022/08/13 00:52:49;;;;;;;;;;;;;;;;;;5034747;28;20082;-76
2022/08/13 00:55:16;;;;;;;;;;;;;;;;;;5038828;28;20017;-77
2022/08/13 00:57:44;;;;;;;;;;;;;;;;;;5047018;28;19975;-76
2022/08/13 01:00:13;;;;;;;;;;;;;;;;;;5038053;28;19963;-76
2022/08/13 01:02:39;;;;;;;;;;;;;;;;;;5045078;28;19945;-75
2022/08/13 01:05:05;;;;;;;;;;;;;;;;;;5026949;28;19968;-76
2022/08/13 01:07:31;;;;;;;;;;;;;;;;;;5045828;28;19952;-77
2022/08/13 01:09:57;;;;;;;;;;;;;;;;;;5029817;28;19957;-76
2022/08/13 01:12:24;;;;;;;;;;;;;;;;;;5043134;28;19963;-77
2022/08/13 01:14:50;;;;;;;;;;;;;;;;;;5045826;28;19957;-77
2022/08/13 01:17:16;;;;;;;;;;;;;;;;;;5044027;28;20346;-78
2022/08/13 01:19:44;;;;;;;;;;;;;;;;;;5046385;28;19944;-76
2022/08/13 01:22:10;;;;;;;;;;;;;;;;;;5044060;28;19921;-78
2022/08/13 01:24:37;;;;;;;;;;;;;;;;;;5027205;28;19929;-77
2022/08/13 01:27:04;;;;;;;;;;;;;;;;;;5043993;28;20372;-78
2022/08/13 01:29:31;;;;;;;;;;;;;;;;;;5041850;28;19970;-76
2022/08/13 01:31:57;;;;;;;;;;;;;;;;;;5046399;28;20013;-77
2022/08/13 01:34:23;;;;;;;;;;;;;;;;;;5045307;28;19968;-77
2022/08/13 01:36:49;;;;;;;;;;;;;;;;;;5047464;28;20007;-77
2022/08/13 01:39:15;;;;;;;;;;;;;;;;;;5043488;28;19955;-77
2022/08/13 01:41:44;;;;;;;;;;;;;;;;;;5046107;28;20408;-79
2022/08/13 01:44:10;;;;;;;;;;;;;;;;;;5048446;28;20030;-79
2022/08/13 01:52:06;;;;;;;;;;;;;;;;;;5045644;28;19952;-76
2022/08/13 01:54:32;;;;;;;;;;;;;;;;;;5045717;28;20018;-78
2022/08/13 01:56:59;;;;;;;;;;;;;;;;;;5044576;28;19955;-76
2022/08/13 01:59:25;;;;;;;;;;;;;;;;;;5046883;28;19940;-76
2022/08/13 02:01:53;;;;;;;;;;;;;;;;;;5047639;28;19948;-77
2022/08/13 02:04:20;;;;;;;;;;;;;;;;;;5047147;28;19963;-77
2022/08/13 02:06:48;;;;;;;;;;;;;;;;;;5047846;28;20305;-78
2022/08/13 02:09:14;;;;;;;;;;;;;;;;;;5047712;28;20022;-79
2022/08/13 02:11:41;;;;;;;;;;;;;;;;;;5048696;28;19955;-77
2022/08/13 02:14:08;;;;;;;;;;;;;;;;;;5044190;28;20045;-78
2022/08/13 02:16:34;;;;;;;;;;;;;;;;;;5043827;28;20443;-77
2022/08/13 02:19:00;;;;;;;;;;;;;;;;;;5041612;28;19952;-75
2022/08/13 02:21:30;;;;;;;;;;;;;;;;;;5034899;28;19957;-77
2022/08/13 02:23:56;;;;;;;;;;;;;;;;;;5042344;28;20405;-77
2022/08/13 02:26:27;;;;;;;;;;;;;;;;;;5046466;28;20001;-78
2022/08/13 02:28:54;;;;;;;;;;;;;;;;;;5046619;28;20314;-78
2022/08/13 02:31:21;;;;;;;;;;;;;;;;;;5047518;28;20395;-79
2022/08/13 02:33:47;;;;;;;;;;;;;;;;;;5031375;28;20376;-79
2022/08/13 02:36:13;;;;;;;;;;;;;;;;;;5044859;28;19968;-78
2022/08/13 02:38:42;;;;;;;;;;;;;;;;;;5031955;28;19956;-80
2022/08/13 02:43:54;;;;;;;;;;;;;;;;;;5044532;28;20380;-80
2022/08/13 02:46:21;;;;;;;;;;;;;;;;;;5029731;28;19959;-79
2022/08/13 02:48:48;;;;;;;;;;;;;;;;;;5044319;28;19956;-78
2022/08/13 02:51:14;;;;;;;;;;;;;;;;;;5044491;28;19949;-78
2022/08/13 02:53:40;;;;;;;;;;;;;;;;;;5039161;28;20397;-78
2022/08/13 02:56:08;;;;;;;;;;;;;;;;;;5040566;28;19960;-77
2022/08/13 02:58:34;;;;;;;;;;;;;;;;;;5046746;28;19944;-78
2022/08/13 03:01:02;;;;;;;;;;;;;;;;;;5041515;28;19952;-79
2022/08/13 03:03:28;;;;;;;;;;;;;;;;;;5036246;28;20432;-79
2022/08/13 03:05:54;;;;;;;;;;;;;;;;;;5044029;28;19948;-79
2022/08/13 03:08:21;;;;;;;;;;;;;;;;;;5047154;28;19952;-78
2022/08/13 03:10:47;;;;;;;;;;;;;;;;;;5047293;28;19956;-78
2022/08/13 03:13:17;;;;;;;;;;;;;;;;;;5047508;28;19952;-78
2022/08/13 03:15:44;;;;;;;;;;;;;;;;;;5041649;28;20380;-79
2022/08/13 03:18:11;;;;;;;;;;;;;;;;;;5046335;28;19960;-79
2022/08/13 03:20:37;;;;;;;;;;;;;;;;;;5027797;28;19953;-78
2022/08/13 03:23:04;;;;;;;;;;;;;;;;;;5041220;28;19940;-79
2022/08/13 03:25:30;;;;;;;;;;;;;;;;;;5014720;28;19976;-81
2022/08/13 03:27:58;;;;;;;;;;;;;;;;;;5038729;28;20332;-79
2022/08/13 03:30:24;;;;;;;;;;;;;;;;;;5048200;28;20041;-79
2022/08/13 03:32:50;;;;;;;;;;;;;;;;;;5043137;28;19952;-79
2022/08/13 03:35:16;;;;;;;;;;;;;;;;;;5040297;28;19956;-79
2022/08/13 03:37:43;;;;;;;;;;;;;;;;;;5044313;28;20367;-78
2022/08/13 03:40:09;;;;;;;;;;;;;;;;;;5023099;28;19966;-78
2022/08/13 03:42:35;;;;;;;;;;;;;;;;;;5041770;28;20522;-77
2022/08/13 03:45:02;;;;;;;;;;;;;;;;;;5025866;28;19955;-77
2022/08/13 03:47:28;;;;;;;;;;;;;;;;;;5039066;28;19948;-77
2022/08/13 03:49:54;;;;;;;;;;;;;;;;;;5043619;28;20027;-77
2022/08/13 03:52:21;;;;;;;;;;;;;;;;;;5020742;28;19937;-77
2022/08/13 03:54:47;;;;;;;;;;;;;;;;;;5042358;28;19982;-77
2022/08/13 03:57:17;;;;;;;;;;;;;;;;;;5027220;28;19995;-76
2022/08/13 03:59:48;;;;;;;;;;;;;;;;;;5036588;28;19913;-77
2022/08/13 04:02:15;;;;;;;;;;;;;;;;;;5040746;28;19963;-77
2022/08/13 04:04:46;;;;;;;;;;;;;;;;;;5041586;28;19948;-77
2022/08/13 04:07:12;;;;;;;;;;;;;;;;;;5040137;28;20087;-77
2022/08/13 04:09:38;;;;;;;;;;;;;;;;;;5046354;28;20014;-76
2022/08/13 04:12:09;;;;;;;;;;;;;;;;;;5042084;28;19952;-78
2022/08/13 04:14:35;;;;;;;;;;;;;;;;;;5044894;28;20033;-77
2022/08/13 04:17:05;;;;;;;;;;;;;;;;;;5032428;28;19983;-78
2022/08/13 04:19:33;;;;;;;;;;;;;;;;;;5042789;28;19955;-78
2022/08/13 04:21:59;;;;;;;;;;;;;;;;;;5039037;28;19964;-79
2022/08/13 04:24:27;;;;;;;;;;;;;;;;;;5039264;28;19951;-78
2022/08/13 04:26:54;;;;;;;;;;;;;;;;;;5042138;28;20006;-78
2022/08/13 04:29:20;;;;;;;;;;;;;;;;;;5026893;28;20001;-78
2022/08/13 04:31:46;;;;;;;;;;;;;;;;;;5041001;28;20399;-78
2022/08/13 04:34:13;;;;;;;;;;;;;;;;;;5045208;28;19917;-78
2022/08/13 04:36:39;;;;;;;;;;;;;;;;;;5046705;28;19963;-78
2022/08/13 04:39:06;;;;;;;;;;;;;;;;;;5025522;28;19955;-77
2022/08/13 04:41:32;;;;;;;;;;;;;;;;;;5043096;28;19921;-79
2022/08/13 04:43:58;;;;;;;;;;;;;;;;;;5038284;28;20336;-79
2022/08/13 04:46:25;;;;;;;;;;;;;;;;;;5042487;28;20385;-78
2022/08/13 04:48:53;;;;;;;;;;;;;;;;;;5045333;28;19952;-79
2022/08/13 04:51:20;;;;;;;;;;;;;;;;;;5044338;28;19952;-79
2022/08/13 04:53:46;;;;;;;;;;;;;;;;;;5016906;28;20405;-80
2022/08/13 04:56:12;;;;;;;;;;;;;;;;;;5021318;28;20382;-80
2022/08/13 04:58:38;;;;;;;;;;;;;;;;;;5043299;28;19952;-80
2022/08/13 05:01:08;;;;;;;;;;;;;;;;;;5025119;28;19917;-78
2022/08/13 05:03:37;;;;;;;;;;;;;;;;;;5046517;28;20036;-81
2022/08/13 05:06:03;;;;;;;;;;;;;;;;;;5045893;28;20507;-78
2022/08/13 05:08:32;;;;;;;;;;;;;;;;;;5044651;28;20382;-79
2022/08/13 05:11:06;;;;;;;;;;;;;;;;;;5042476;28;19943;-77
2022/08/13 05:13:33;;;;;;;;;;;;;;;;;;5029764;28;19979;-78
2022/08/13 05:15:59;;;;;;;;;;;;;;;;;;5022187;28;19960;-79
2022/08/13 05:18:25;;;;;;;;;;;;;;;;;;5043236;28;19971;-77
2022/08/13 05:20:54;;;;;;;;;;;;;;;;;;5046230;28;20025;-76
2022/08/13 05:23:20;;;;;;;;;;;;;;;;;;5049623;28;20342;-76
2022/08/13 05:25:46;;;;;;;;;;;;;;;;;;5050603;28;19952;-75
2022/08/13 05:28:13;;;;;;;;;;;;;;;;;;5031883;28;20419;-76
2022/08/13 05:30:39;;;;;;;;;;;;;;;;;;5044251;28;19960;-76
2022/08/13 05:33:05;;;;;;;;;;;;;;;;;;5049346;28;19952;-76
2022/08/13 05:35:32;;;;;;;;;;;;;;;;;;5024432;28;19980;-76
2022/08/13 05:37:59;;;;;;;;;;;;;;;;;;5046234;28;20379;-76
2022/08/13 05:40:27;;;;;;;;;;;;;;;;;;5046163;28;19956;-75
2022/08/13 05:42:56;;;;;;;;;;;;;;;;;;5041360;28;19923;-74
2022/08/13 05:45:22;;;;;;;;;;;;;;;;;;5042118;28;20400;-74
2022/08/13 05:47:50;;;;;;;;;;;;;;;;;;5056974;28;20006;-74
2022/08/13 05:50:16;;;;;;;;;;;;;;;;;;5043255;28;19956;-77
2022/08/13 05:52:43;;;;;;;;;;;;;;;;;;5028815;28;19955;-77
2022/08/13 05:55:11;;;;;;;;;;;;;;;;;;5043642;28;19983;-76
2022/08/13 05:57:37;;;;;;;;;;;;;;;;;;5049360;28;20456;-77
2022/08/13 06:05:33;;;;;;;;;;;;;;;;;;5027480;28;20648;-77
2022/08/13 06:08:00;;;;;;;;;;;;;;;;;;5047499;28;19964;-76
2022/08/13 06:10:27;;;;;;;;;;;;;;;;;;5042831;28;20686;-76
2022/08/13 06:12:54;;;;;;;;;;;;;;;;;;5049085;28;19955;-77
2022/08/13 06:15:22;;;;;;;;;;;;;;;;;;5024114;28;20507;-76
2022/08/13 06:17:48;;;;;;;;;;;;;;;;;;5045400;28;19952;-76
2022/08/13 06:20:15;;;;;;;;;;;;;;;;;;5039133;28;19956;-77
2022/08/13 06:22:41;;;;;;;;;;;;;;;;;;5045834;28;19990;-78
2022/08/13 06:25:07;;;;;;;;;;;;;;;;;;5045979;28;20340;-76
2022/08/13 06:27:33;;;;;;;;;;;;;;;;;;5044682;28;19955;-78
2022/08/13 06:30:01;;;;;;;;;;;;;;;;;;5046429;28;19961;-78
2022/08/13 06:32:28;;;;;;;;;;;;;;;;;;5047067;28;19948;-80
2022/08/13 06:34:54;;;;;;;;;;;;;;;;;;5043277;28;19960;-76
2022/08/13 06:37:22;;;;;;;;;;;;;;;;;;5026562;28;19952;-77
2022/08/13 06:39:49;;;;;;;;;;;;;;;;;;5047681;28;20440;-77
2022/08/13 06:42:15;;;;;;;;;;;;;;;;;;5026355;28;19960;-76
2022/08/13 06:44:43;;;;;;;;;;;;;;;;;;5044643;28;20594;-76
2022/08/13 06:47:09;;;;;;;;;;;;;;;;;;5037947;28;19960;-76
2022/08/13 06:49:35;;;;;;;;;;;;;;;;;;5045492;28;20391;-77
2022/08/13 06:52:01;;;;;;;;;;;;;;;;;;5036050;28;19949;-78
2022/08/13 06:54:27;;;;;;;;;;;;;;;;;;5045285;28;19948;-77
2022/08/13 06:56:53;;;;;;;;;;;;;;;;;;5040029;28;19956;-77
2022/08/13 06:59:20;;;;;;;;;;;;;;;;;;5038907;28;20596;-76
2022/08/13 07:01:46;;;;;;;;;;;;;;;;;;5042175;28;19945;-76
2022/08/13 07:04:13;;;;;;;;;;;;;;;;;;5045091;28;19960;-77
2022/08/13 07:06:39;;;;;;;;;;;;;;;;;;5047392;28;19952;-77
2022/08/13 07:09:05;;;;;;;;;;;;;;;;;;5045482;28;19971;-77
2022/08/13 07:11:32;;;;;;;;;;;;;;;;;;5046396;28;19951;-79
2022/08/13 07:13:58;;;;;;;;;;;;;;;;;;5045247;28;20014;-77
2022/08/13 07:16:24;;;;;;;;;;;;;;;;;;5044665;28;19929;-78
2022/08/13 07:18:51;;;;;;;;;;;;;;;;;;5045348;28;20297;-80
2022/08/13 07:21:18;;;;;;;;;;;;;;;;;;5045974;28;19960;-77
2022/08/13 07:23:44;;;;;;;;;;;;;;;;;;5041839;28;19948;-78
2022/08/13 07:26:12;;;;;;;;;;;;;;;;;;5042228;28;19975;-78
2022/08/13 07:28:38;;;;;;;;;;;;;;;;;;5043383;28;19952;-78
2022/08/13 07:31:08;;;;;;;;;;;;;;;;;;5043508;28;20033;-78
2022/08/13 07:33:34;;;;;;;;;;;;;;;;;;5025987;28;19940;-76
2022/08/13 07:36:00;;;;;;;;;;;;;;;;;;5044134;28;19968;-77
2022/08/13 07:38:27;;;;;;;;;;;;;;;;;;5046650;28;20361;-75
2022/08/13 07:40:55;;;;;;;;;;;;;;;;;;5043392;28;19959;-77
2022/08/13 07:43:21;;;;;;;;;;;;;;;;;;5043203;28;20487;-76
2022/08/13 07:45:47;;;;;;;;;;;;;;;;;;5043814;28;20382;-76
2022/08/13 07:48:14;;;;;;;;;;;;;;;;;;5042814;28;19964;-77
2022/08/13 07:50:41;;;;;;;;;;;;;;;;;;5047378;28;19959;-86
2022/08/13 07:53:09;;;;;;;;;;;;;;;;;;5041871;28;20033;-80
2022/08/13 07:55:35;;;;;;;;;;;;;;;;;;5039267;28;19964;-80
2022/08/13 07:58:02;;;;;;;;;;;;;;;;;;5035275;28;20030;-79
2022/08/13 08:00:29;;;;;;;;;;;;;;;;;;5046042;28;19967;-81
2022/08/13 08:02:55;;;;;;;;;;;;;;;;;;5048032;28;19948;-80
2022/08/13 08:05:22;;;;;;;;;;;;;;;;;;5026192;28;19948;-80
2022/08/13 08:07:50;;;;;;;;;;;;;;;;;;5027152;28;19991;-81
2022/08/13 08:10:18;;;;;;;;;;;;;;;;;;5046746;28;19963;-81
2022/08/13 08:12:44;;;;;;;;;;;;;;;;;;5046084;28;20357;-81
2022/08/13 08:15:11;;;;;;;;;;;;;;;;;;5028431;28;19967;-80
2022/08/13 08:17:37;;;;;;;;;;;;;;;;;;5043884;28;19959;-80
2022/08/13 08:20:04;;;;;;;;;;;;;;;;;;5043278;28;20380;-82
2022/08/13 08:22:30;;;;;;;;;;;;;;;;;;5040039;28;20445;-80
2022/08/13 08:24:56;;;;;;;;;;;;;;;;;;5049115;28;19921;-85
2022/08/13 08:27:25;;;;;;;;;;;;;;;;;;5046239;28;19933;-83
2022/08/13 08:29:52;;;;;;;;;;;;;;;;;;5043564;28;20514;-84
2022/08/13 08:32:18;;;;;;;;;;;;;;;;;;5043925;28;19964;-83
2022/08/13 08:34:45;;;;;;;;;;;;;;;;;;5042921;28;20389;-83
2022/08/13 08:37:11;;;;;;;;;;;;;;;;;;5045403;28;19936;-82
2022/08/13 08:42:40;;;;;;;;;;;;;;;;;;4924335;29;20020;-83
2022/08/13 08:45:12;;;;;;;;;;;;;;;;;;5018912;28;19968;-85
2022/08/13 08:47:38;;;;;;;;;;;;;;;;;;5028796;28;20450;-83
2022/08/13 08:50:09;;;;;;;;;;;;;;;;;;5044525;28;20061;-83
2022/08/13 08:55:20;;;;;;;;;;;;;;;;;;5044737;28;19952;-83
2022/08/13 08:57:46;;;;;;;;;;;;;;;;;;5042875;28;19967;-83
2022/08/13 09:00:14;;;;;;;;;;;;;;;;;;5047950;28;19955;-85
2022/08/13 09:02:40;;;;;;;;;;;;;;;;;;5045408;28;20376;-85
2022/08/13 09:05:07;;;;;;;;;;;;;;;;;;5026933;28;19951;-82
2022/08/13 09:07:36;;;;;;;;;;;;;;;;;;5045111;28;20026;-82
2022/08/13 09:10:04;;;;;;;;;;;;;;;;;;5040615;28;20037;-83
2022/08/13 09:12:30;;;;;;;;;;;;;;;;;;5042768;28;21316;-84
2022/08/13 09:14:56;;;;;;;;;;;;;;;;;;5026732;28;20428;-80
2022/08/13 09:17:22;;;;;;;;;;;;;;;;;;5039825;28;19980;-80
2022/08/13 09:19:48;;;;;;;;;;;;;;;;;;5039964;28;20425;-79
2022/08/13 09:22:16;;;;;;;;;;;;;;;;;;5043087;28;19921;-84
2022/08/13 09:24:46;;;;;;;;;;;;;;;;;;5045871;28;19953;-82
2022/08/13 09:27:15;;;;;;;;;;;;;;;;;;5041146;28;19941;-79
2022/08/13 09:29:42;;;;;;;;;;;;;;;;;;5016925;28;19952;-80
2022/08/13 09:32:09;;;;;;;;;;;;;;;;;;5045869;28;19956;-80
2022/08/13 09:34:36;;;;;;;;;;;;;;;;;;5044634;28;19960;-79
2022/08/13 09:37:02;;;;;;;;;;;;;;;;;;5045370;28;19912;-80
2022/08/13 09:39:28;;;;;;;;;;;;;;;;;;5024456;28;19995;-80
2022/08/13 09:41:54;;;;;;;;;;;;;;;;;;5043799;28;19995;-80
2022/08/13 09:44:20;;;;;;;;;;;;;;;;;;5038443;28;19948;-74
2022/08/13 09:46:47;;;;;;;;;;;;;;;;;;5043889;28;19955;-76
2022/08/13 09:49:13;;;;;;;;;;;;;;;;;;5042082;28;20668;-76
2022/08/13 09:51:39;;;;;;;;;;;;;;;;;;5035353;28;19955;-77
2022/08/13 09:54:05;;;;;;;;;;;;;;;;;;5037764;28;19955;-73
2022/08/13 09:56:37;;;;;;;;;;;;;;;;;;5046537;28;20010;-73
2022/08/13 09:59:03;;;;;;;;;;;;;;;;;;5047651;28;19928;-75
2022/08/13 10:01:29;;;;;;;;;;;;;;;;;;5044379;28;19971;-74
2022/08/13 10:03:56;;;;;;;;;;;;;;;;;;5046980;28;19963;-74
2022/08/13 10:06:28;;;;;;;;;;;;;;;;;;5027100;28;19965;-75
2022/08/13 10:08:54;;;;;;;;;;;;;;;;;;5047057;28;20021;-75
2022/08/13 10:11:22;;;;;;;;;;;;;;;;;;5030955;28;19952;-75
2022/08/13 10:13:48;;;;;;;;;;;;;;;;;;5033647;28;19963;-75
2022/08/13 10:16:14;;;;;;;;;;;;;;;;;;5049925;28;20023;-74
2022/08/13 10:18:41;;;;;;;;;;;;;;;;;;5048947;28;19960;-75
2022/08/13 10:21:07;;;;;;;;;;;;;;;;;;5044538;28;19952;-74
2022/08/13 10:23:34;;;;;;;;;;;;;;;;;;5049649;28;20669;-75
2022/08/13 10:26:00;;;;;;;;;;;;;;;;;;5048375;28;19947;-75
2022/08/13 10:28:26;;;;;;;;;;;;;;;;;;5051824;28;20005;-76
2022/08/13 10:30:54;;;;;;;;;;;;;;;;;;5049954;28;20000;-76
2022/08/13 10:33:20;;;;;;;;;;;;;;;;;;5045752;28;19960;-76
2022/08/13 10:35:52;;;;;;;;;;;;;;;;;;5031098;28;19960;-75
2022/08/13 10:38:18;;;;;;;;;;;;;;;;;;5046921;28;20454;-76
2022/08/13 10:40:44;;;;;;;;;;;;;;;;;;5046358;28;19960;-76
2022/08/13 10:43:10;;;;;;;;;;;;;;;;;;5028093;28;20390;-77
2022/08/13 10:45:36;;;;;;;;;;;;;;;;;;5046463;28;19947;-76
2022/08/13 10:48:03;;;;;;;;;;;;;;;;;;5030390;28;19928;-76
2022/08/13 10:50:30;;;;;;;;;;;;;;;;;;5044336;28;19956;-74
2022/08/13 10:52:57;;;;;;;;;;;;;;;;;;5045036;28;19956;-76
2022/08/13 10:55:24;;;;;;;;;;;;;;;;;;5047391;28;19980;-74
2022/08/13 10:57:50;;;;;;;;;;;;;;;;;;5047415;28;19981;-76
2022/08/13 11:00:22;;;;;;;;;;;;;;;;;;5046088;28;20021;-74
2022/08/13 11:02:50;;;;;;;;;;;;;;;;;;5045295;28;19948;-75
2022/08/13 11:05:17;;;;;;;;;;;;;;;;;;5047251;28;20393;-74
2022/08/13 11:07:43;;;;;;;;;;;;;;;;;;5046451;28;19960;-75
2022/08/13 11:10:09;;;;;;;;;;;;;;;;;;5043945;28;19925;-75
2022/08/13 11:12:50;;;;;;;;;;;;;;;;;;5041890;28;19998;-75
2022/08/13 11:15:16;;;;;;;;;;;;;;;;;;5040809;28;20454;-75
2022/08/13 11:17:42;;;;;;;;;;;;;;;;;;5045467;28;19921;-75
2022/08/13 11:20:13;;;;;;;;;;;;;;;;;;5045656;28;19948;-74
2022/08/13 11:22:40;;;;;;;;;;;;;;;;;;5049286;28;19941;-76
2022/08/13 11:25:07;;;;;;;;;;;;;;;;;;5049459;28;20660;-77
2022/08/13 11:27:34;;;;;;;;;;;;;;;;;;5025788;28;19963;-76
2022/08/13 11:30:00;;;;;;;;;;;;;;;;;;5047787;28;19945;-75
2022/08/13 11:32:27;;;;;;;;;;;;;;;;;;5045293;28;19952;-76
2022/08/13 11:34:53;;;;;;;;;;;;;;;;;;5046131;28;19968;-81
2022/08/13 11:37:19;;;;;;;;;;;;;;;;;;5045585;28;20446;-78
2022/08/13 11:39:45;;;;;;;;;;;;;;;;;;5046668;28;20011;-79
2022/08/13 11:42:11;;;;;;;;;;;;;;;;;;5038292;28;19932;-80
2022/08/13 11:44:37;;;;;;;;;;;;;;;;;;5046466;28;19951;-78
2022/08/13 11:47:04;;;;;;;;;;;;;;;;;;5044816;28;20333;-78
2022/08/13 11:49:30;;;;;;;;;;;;;;;;;;5047330;28;22185;-78
2022/08/13 11:51:56;;;;;;;;;;;;;;;;;;5037151;28;19952;-81
2022/08/13 11:54:22;;;;;;;;;;;;;;;;;;5047327;28;20446;-79
2022/08/13 11:56:48;;;;;;;;;;;;;;;;;;5046985;28;19952;-78
2022/08/13 11:59:15;;;;;;;;;;;;;;;;;;5045338;28;20010;-79
2022/08/13 12:01:41;;;;;;;;;;;;;;;;;;5040436;28;19956;-80
2022/08/13 12:04:07;;;;;;;;;;;;;;;;;;5047479;28;19970;-78
2022/08/13 12:06:34;;;;;;;;;;;;;;;;;;5044102;28;20330;-80
2022/08/13 12:09:02;;;;;;;;;;;;;;;;;;5047496;28;19966;-80
2022/08/13 12:11:29;;;;;;;;;;;;;;;;;;5045931;28;19997;-79
2022/08/13 12:13:56;;;;;;;;;;;;;;;;;;5045367;28;19948;-79
2022/08/13 12:16:22;;;;;;;;;;;;;;;;;;5042484;28;19964;-79
2022/08/13 12:18:48;;;;;;;;;;;;;;;;;;5041591;28;20228;-80
2022/08/13 12:21:15;;;;;;;;;;;;;;;;;;5039825;28;19943;-78
2022/08/13 12:23:41;;;;;;;;;;;;;;;;;;5038201;28;19953;-78
2022/08/13 12:26:07;;;;;;;;;;;;;;;;;;5045807;28;20460;-79
2022/08/13 12:28:33;;;;;;;;;;;;;;;;;;5043353;28;19956;-78
2022/08/13 12:31:00;;;;;;;;;;;;;;;;;;5045422;28;19966;-79
2022/08/13 12:33:26;;;;;;;;;;;;;;;;;;5043007;28;19965;-79
2022/08/13 12:35:52;;;;;;;;;;;;;;;;;;5042427;28;20180;-80
2022/08/13 12:38:18;;;;;;;;;;;;;;;;;;5047178;28;19959;-79
2022/08/13 12:40:44;;;;;;;;;;;;;;;;;;5046860;28;19951;-79
2022/08/13 12:43:11;;;;;;;;;;;;;;;;;;5041508;28;20360;-78
2022/08/13 12:45:37;;;;;;;;;;;;;;;;;;5046373;28;19963;-79
2022/08/13 12:48:03;;;;;;;;;;;;;;;;;;5042744;28;19959;-79
2022/08/13 12:50:29;;;;;;;;;;;;;;;;;;5034149;28;19960;-79
2022/08/13 12:52:56;;;;;;;;;;;;;;;;;;5042274;28;19963;-79
2022/08/13 12:55:22;;;;;;;;;;;;;;;;;;5042581;28;19925;-79
2022/08/13 12:57:48;;;;;;;;;;;;;;;;;;5040075;28;19964;-79
2022/08/13 13:00:14;;;;;;;;;;;;;;;;;;5046114;28;19963;-79
2022/08/13 13:02:40;;;;;;;;;;;;;;;;;;5047316;28;19983;-79
2022/08/13 13:05:07;;;;;;;;;;;;;;;;;;5045741;28;20270;-79
2022/08/13 13:07:33;;;;;;;;;;;;;;;;;;5038104;28;19920;-78
2022/08/13 13:09:59;;;;;;;;;;;;;;;;;;5047133;28;19956;-78
2022/08/13 13:12:25;;;;;;;;;;;;;;;;;;5046249;28;20002;-79
2022/08/13 13:14:52;;;;;;;;;;;;;;;;;;5041922;28;20386;-80
2022/08/13 13:17:18;;;;;;;;;;;;;;;;;;5046985;28;20393;-78
2022/08/13 13:19:44;;;;;;;;;;;;;;;;;;5019698;28;19963;-78
2022/08/13 13:22:10;;;;;;;;;;;;;;;;;;5040929;28;19991;-79
2022/08/13 13:24:37;;;;;;;;;;;;;;;;;;5027913;28;19956;-78
2022/08/13 13:27:04;;;;;;;;;;;;;;;;;;5043170;28;20400;-78
2022/08/13 13:29:30;;;;;;;;;;;;;;;;;;5046315;28;19964;-79
2022/08/13 13:32:01;;;;;;;;;;;;;;;;;;5050811;28;20390;-78
2022/08/13 13:34:27;;;;;;;;;;;;;;;;;;5044076;28;19921;-78
2022/08/13 13:36:53;;;;;;;;;;;;;;;;;;5040463;28;19960;-79
2022/08/13 13:39:19;;;;;;;;;;;;;;;;;;5026384;28;19953;-80
2022/08/13 13:41:46;;;;;;;;;;;;;;;;;;5049157;28;19944;-80
2022/08/13 13:44:12;;;;;;;;;;;;;;;;;;5050155;28;19913;-80
2022/08/13 13:46:38;;;;;;;;;;;;;;;;;;5050911;28;19956;-80
2022/08/13 13:49:04;;;;;;;;;;;;;;;;;;5032855;28;19960;-79
2022/08/13 13:51:30;;;;;;;;;;;;;;;;;;5048652;28;19964;-80
2022/08/13 13:53:56;;;;;;;;;;;;;;;;;;5048602;28;20579;-78
2022/08/13 13:56:23;;;;;;;;;;;;;;;;;;5046982;28;19960;-79
2022/08/13 13:58:49;;;;;;;;;;;;;;;;;;5042807;28;19960;-78
2022/08/13 14:01:15;;;;;;;;;;;;;;;;;;5045259;28;19928;-78
2022/08/13 14:03:41;;;;;;;;;;;;;;;;;;5050132;28;19944;-78
2022/08/13 14:06:08;;;;;;;;;;;;;;;;;;5049271;28;20355;-77
2022/08/13 14:08:35;;;;;;;;;;;;;;;;;;5048773;28;19956;-79
2022/08/13 14:11:02;;;;;;;;;;;;;;;;;;5049587;28;19924;-79
2022/08/13 14:13:28;;;;;;;;;;;;;;;;;;5048518;28;20010;-80
2022/08/13 14:15:54;;;;;;;;;;;;;;;;;;5047542;28;19968;-79
2022/08/13 14:18:21;;;;;;;;;;;;;;;;;;5042461;28;19996;-79
2022/08/13 14:20:47;;;;;;;;;;;;;;;;;;5049733;28;19952;-79
2022/08/13 14:23:13;;;;;;;;;;;;;;;;;;5046249;28;19968;-79
2022/08/13 14:25:39;;;;;;;;;;;;;;;;;;5050207;28;20381;-79
2022/08/13 14:28:06;;;;;;;;;;;;;;;;;;5049193;28;19960;-79
2022/08/13 14:30:33;;;;;;;;;;;;;;;;;;5048770;28;19960;-79
2022/08/13 14:32:59;;;;;;;;;;;;;;;;;;5049833;28;20391;-79
2022/08/13 14:35:25;;;;;;;;;;;;;;;;;;5045274;28;20026;-80
2022/08/13 14:37:51;;;;;;;;;;;;;;;;;;5050632;28;19952;-79
2022/08/13 14:40:17;;;;;;;;;;;;;;;;;;5046885;28;19968;-79
2022/08/13 14:42:44;;;;;;;;;;;;;;;;;;5032219;28;20039;-79
2022/08/13 14:47:56;;;;;;;;;;;;;;;;;;5049154;28;19964;-79
2022/08/13 14:50:22;;;;;;;;;;;;;;;;;;5047340;28;20645;-78
2022/08/13 14:52:48;;;;;;;;;;;;;;;;;;5042767;28;19987;-79
2022/08/13 14:55:14;;;;;;;;;;;;;;;;;;5048543;28;19964;-79
2022/08/13 14:57:40;;;;;;;;;;;;;;;;;;5046849;28;19964;-79
2022/08/13 15:00:08;;;;;;;;;;;;;;;;;;5047162;28;20082;-78
2022/08/13 15:02:35;;;;;;;;;;;;;;;;;;5046068;28;19956;-79
2022/08/13 15:05:01;;;;;;;;;;;;;;;;;;5044812;28;19956;-79
2022/08/13 15:07:27;;;;;;;;;;;;;;;;;;5048600;28;19991;-79
2022/08/13 15:09:53;;;;;;;;;;;;;;;;;;5052595;28;19979;-78
2022/08/13 15:12:20;;;;;;;;;;;;;;;;;;5043720;28;20356;-79
2022/08/13 15:14:46;;;;;;;;;;;;;;;;;;5046451;28;19952;-79
2022/08/13 15:17:12;;;;;;;;;;;;;;;;;;5042050;28;19960;-79
2022/08/13 15:19:39;;;;;;;;;;;;;;;;;;5026869;28;19941;-80
2022/08/13 15:22:06;;;;;;;;;;;;;;;;;;5031202;28;19956;-78
2022/08/13 15:24:33;;;;;;;;;;;;;;;;;;5047155;28;19953;-79
2022/08/13 15:26:59;;;;;;;;;;;;;;;;;;5046537;28;19952;-79
2022/08/13 15:29:25;;;;;;;;;;;;;;;;;;5043831;28;19952;-80
2022/08/13 15:31:51;;;;;;;;;;;;;;;;;;5048184;28;19949;-79
2022/08/13 15:34:17;;;;;;;;;;;;;;;;;;5041629;28;20350;-80
2022/08/13 15:36:44;;;;;;;;;;;;;;;;;;5044747;28;19964;-80
2022/08/13 15:39:10;;;;;;;;;;;;;;;;;;5024129;28;19952;-79
2022/08/13 15:41:37;;;;;;;;;;;;;;;;;;5041647;28;19983;-78
2022/08/13 15:44:03;;;;;;;;;;;;;;;;;;5042729;28;20016;-79
2022/08/13 15:46:29;;;;;;;;;;;;;;;;;;5039886;28;19987;-78
2022/08/13 15:48:56;;;;;;;;;;;;;;;;;;5044999;28;19948;-79
2022/08/13 15:51:22;;;;;;;;;;;;;;;;;;5047039;28;19968;-80
2022/08/13 15:53:48;;;;;;;;;;;;;;;;;;5047871;28;19960;-79
2022/08/13 15:56:14;;;;;;;;;;;;;;;;;;5044984;28;20468;-79
2022/08/13 15:58:41;;;;;;;;;;;;;;;;;;5048282;28;19921;-80
2022/08/13 16:01:07;;;;;;;;;;;;;;;;;;5026242;28;20523;-79
2022/08/13 16:03:33;;;;;;;;;;;;;;;;;;5030164;28;19956;-79
2022/08/13 16:06:00;;;;;;;;;;;;;;;;;;5048785;28;19948;-79
2022/08/13 16:08:26;;;;;;;;;;;;;;;;;;5046675;28;20318;-79
2022/08/13 16:10:54;;;;;;;;;;;;;;;;;;5037443;28;19956;-79
2022/08/13 16:13:20;;;;;;;;;;;;;;;;;;5046636;28;19963;-79
2022/08/13 16:15:46;;;;;;;;;;;;;;;;;;5029809;28;19920;-79
2022/08/13 16:18:13;;;;;;;;;;;;;;;;;;5042801;28;19963;-77
2022/08/13 16:20:39;;;;;;;;;;;;;;;;;;5040179;28;19952;-80
2022/08/13 16:23:05;;;;;;;;;;;;;;;;;;5048631;28;19974;-79
2022/08/13 16:25:31;;;;;;;;;;;;;;;;;;5035875;28;19955;-80
2022/08/13 16:27:58;;;;;;;;;;;;;;;;;;5046616;28;19952;-80
2022/08/13 16:30:25;;;;;;;;;;;;;;;;;;5044362;28;19921;-79
2022/08/13 16:32:51;;;;;;;;;;;;;;;;;;5042473;28;19964;-79
2022/08/13 16:35:17;;;;;;;;;;;;;;;;;;5041274;28;20433;-79
2022/08/13 16:37:44;;;;;;;;;;;;;;;;;;5025658;28;20329;-78
2022/08/13 16:40:10;;;;;;;;;;;;;;;;;;5045520;28;19921;-79
2022/08/13 16:42:36;;;;;;;;;;;;;;;;;;5047973;28;19960;-79
2022/08/13 16:45:03;;;;;;;;;;;;;;;;;;5047478;28;20338;-79
2022/08/13 16:47:29;;;;;;;;;;;;;;;;;;5040699;28;19956;-79
2022/08/13 16:49:57;;;;;;;;;;;;;;;;;;5029514;28;20347;-79
2022/08/13 16:52:23;;;;;;;;;;;;;;;;;;5025119;28;20405;-79
2022/08/13 16:54:49;;;;;;;;;;;;;;;;;;5046784;28;19944;-80
2022/08/13 16:57:15;;;;;;;;;;;;;;;;;;5042349;28;19983;-80
2022/08/13 16:59:45;;;;;;;;;;;;;;;;;;5044890;28;19952;-79
2022/08/13 17:02:13;;;;;;;;;;;;;;;;;;5046742;28;19952;-79
2022/08/13 17:10:12;;;;;;;;;;;;;;;;;;5043039;28;19960;-81
2022/08/13 17:12:39;;;;;;;;;;;;;;;;;;5028039;28;20393;-80